createdAt,value
2018-05-04T00:00:11.685Z,930.86
2018-05-04T00:00:24.767Z,930.83
2018-05-04T00:00:36.921Z,930.87
2018-05-04T00:00:49.526Z,930.87
2018-05-04T00:01:02.908Z,930.87
2018-05-04T00:01:15.988Z,930.85
2018-05-04T00:01:29.160Z,930.88
2018-05-04T00:01:42.248Z,930.85
2018-05-04T00:01:54.845Z,930.83
2018-05-04T00:02:07.454Z,930.85
2018-05-04T00:02:20.956Z,930.86
2018-05-04T00:02:34.054Z,930.85
2018-05-04T00:02:47.149Z,930.87
2018-05-04T00:02:59.748Z,930.87
2018-05-04T00:03:12.800Z,930.86
2018-05-04T00:03:25.407Z,930.87
2018-05-04T00:03:38.505Z,930.9
2018-05-04T00:03:51.645Z,930.87
2018-05-04T00:04:04.708Z,930.9
2018-05-04T00:04:16.762Z,930.85
2018-05-04T00:04:28.843Z,930.88
2018-05-04T00:04:41.931Z,930.88
2018-05-04T00:04:55.210Z,930.88
2018-05-04T00:05:08.280Z,930.85
2018-05-04T00:05:20.404Z,930.83
2018-05-04T00:05:33.480Z,930.85
2018-05-04T00:05:46.555Z,930.88
2018-05-04T00:05:59.631Z,930.83
2018-05-04T00:06:13.690Z,930.85
2018-05-04T00:06:26.300Z,930.82
2018-05-04T00:06:39.425Z,930.83
2018-05-04T00:06:52.472Z,930.82
2018-05-04T00:07:05.529Z,930.88
2018-05-04T00:07:18.112Z,930.85
2018-05-04T00:07:31.802Z,930.86
2018-05-04T00:07:44.888Z,930.84
2018-05-04T00:07:57.481Z,930.82
2018-05-04T00:08:10.135Z,930.81
2018-05-04T00:08:22.964Z,930.82
2018-05-04T00:08:35.598Z,930.83
2018-05-04T00:08:48.840Z,930.83
2018-05-04T00:09:01.427Z,930.84
2018-05-04T00:09:14.506Z,930.84
2018-05-04T00:09:27.587Z,930.79
2018-05-04T00:09:40.900Z,930.81
2018-05-04T00:09:53.526Z,930.82
2018-05-04T00:10:07.758Z,930.84
2018-05-04T00:10:20.422Z,930.83
2018-05-04T00:10:33.492Z,930.84
2018-05-04T00:10:46.378Z,930.82
2018-05-04T00:10:58.535Z,930.81
2018-05-04T00:11:11.641Z,930.84
2018-05-04T00:11:24.489Z,930.84
2018-05-04T00:11:37.813Z,930.79
2018-05-04T00:11:50.871Z,930.8
2018-05-04T00:12:03.457Z,930.83
2018-05-04T00:12:15.644Z,930.84
2018-05-04T00:12:28.379Z,930.83
2018-05-04T00:12:41.464Z,930.84
2018-05-04T00:12:54.788Z,930.84
2018-05-04T00:13:08.096Z,930.85
2018-05-04T00:13:21.183Z,930.84
2018-05-04T00:13:34.414Z,930.82
2018-05-04T00:13:47.026Z,930.81
2018-05-04T00:14:00.287Z,930.82
2018-05-04T00:14:12.898Z,930.83
2018-05-04T00:14:26.227Z,930.83
2018-05-04T00:14:38.571Z,930.82
2018-05-04T00:14:51.602Z,930.84
2018-05-04T00:15:04.213Z,930.85
2018-05-04T00:15:17.847Z,930.86
2018-05-04T00:15:30.978Z,930.83
2018-05-04T00:15:43.579Z,930.82
2018-05-04T00:15:56.586Z,930.8
2018-05-04T00:16:10.360Z,930.85
2018-05-04T00:16:22.964Z,930.83
2018-05-04T00:16:35.105Z,930.85
2018-05-04T00:16:48.190Z,930.82
2018-05-04T00:17:01.272Z,930.8
2018-05-04T00:17:13.828Z,930.83
2018-05-04T00:17:27.176Z,930.84
2018-05-04T00:17:40.236Z,930.84
2018-05-04T00:17:52.590Z,930.86
2018-05-04T00:18:06.280Z,930.87
2018-05-04T00:18:19.397Z,930.8
2018-05-04T00:18:32.691Z,930.84
2018-05-04T00:18:45.931Z,930.85
2018-05-04T00:19:00.458Z,930.78
2018-05-04T00:19:12.104Z,930.81
2018-05-04T00:19:24.930Z,930.79
2018-05-04T00:19:38.500Z,930.8
2018-05-04T00:19:51.815Z,930.8
2018-05-04T00:20:04.644Z,930.79
2018-05-04T00:20:17.262Z,930.77
2018-05-04T00:20:29.942Z,930.77
2018-05-04T00:20:42.538Z,930.8
2018-05-04T00:20:55.623Z,930.79
2018-05-04T00:21:08.436Z,930.79
2018-05-04T00:21:21.726Z,930.79
2018-05-04T00:21:35.218Z,930.79
2018-05-04T00:21:48.515Z,930.82
2018-05-04T00:22:01.587Z,930.82
2018-05-04T00:22:14.671Z,930.84
2018-05-04T00:22:27.778Z,930.83
2018-05-04T00:22:40.645Z,930.81
2018-05-04T00:22:53.483Z,930.84
2018-05-04T00:23:06.594Z,930.83
2018-05-04T00:23:19.646Z,930.77
2018-05-04T00:23:32.240Z,930.81
2018-05-04T00:23:44.354Z,930.77
2018-05-04T00:23:58.898Z,930.82
2018-05-04T00:24:11.978Z,930.81
2018-05-04T00:24:24.106Z,930.82
2018-05-04T00:24:35.779Z,930.79
2018-05-04T00:24:49.253Z,930.83
2018-05-04T00:25:01.867Z,930.82
2018-05-04T00:25:13.989Z,930.82
2018-05-04T00:25:26.821Z,930.78
2018-05-04T00:25:39.913Z,930.84
2018-05-04T00:25:53.005Z,930.83
2018-05-04T00:26:05.625Z,930.83
2018-05-04T00:26:20.450Z,930.83
2018-05-04T00:26:33.949Z,930.79
2018-05-04T00:26:47.076Z,930.83
2018-05-04T00:27:00.344Z,930.8
2018-05-04T00:27:13.408Z,930.85
2018-05-04T00:27:26.744Z,930.85
2018-05-04T00:27:39.325Z,930.8
2018-05-04T00:27:51.625Z,930.81
2018-05-04T00:28:04.691Z,930.83
2018-05-04T00:28:17.291Z,930.82
2018-05-04T00:28:30.418Z,930.86
2018-05-04T00:28:43.009Z,930.8
2018-05-04T00:28:55.819Z,930.83
2018-05-04T00:29:07.922Z,930.82
2018-05-04T00:29:21.207Z,930.86
2018-05-04T00:29:34.684Z,930.83
2018-05-04T00:29:47.758Z,930.85
2018-05-04T00:30:02.307Z,930.88
2018-05-04T00:30:14.449Z,930.86
2018-05-04T00:30:26.580Z,930.82
2018-05-04T00:30:39.898Z,930.83
2018-05-04T00:30:52.946Z,930.85
2018-05-04T00:31:05.562Z,930.86
2018-05-04T00:31:18.440Z,930.9
2018-05-04T00:31:31.485Z,930.86
2018-05-04T00:31:43.648Z,930.86
2018-05-04T00:31:58.365Z,930.87
2018-05-04T00:32:11.469Z,930.85
2018-05-04T00:32:24.527Z,930.84
2018-05-04T00:32:37.801Z,930.88
2018-05-04T00:32:52.294Z,930.87
2018-05-04T00:33:04.879Z,930.87
2018-05-04T00:33:16.996Z,930.87
2018-05-04T00:33:30.031Z,930.88
2018-05-04T00:33:42.605Z,930.85
2018-05-04T00:33:55.697Z,930.83
2018-05-04T00:34:07.838Z,930.83
2018-05-04T00:34:20.451Z,930.85
2018-05-04T00:34:33.012Z,930.85
2018-05-04T00:34:45.654Z,930.88
2018-05-04T00:34:58.680Z,930.9
2018-05-04T00:35:11.264Z,930.86
2018-05-04T00:35:24.747Z,930.88
2018-05-04T00:35:37.396Z,930.83
2018-05-04T00:35:50.253Z,930.85
2018-05-04T00:36:02.867Z,930.84
2018-05-04T00:36:15.939Z,930.84
2018-05-04T00:36:28.579Z,930.82
2018-05-04T00:36:41.244Z,930.84
2018-05-04T00:36:54.379Z,930.83
2018-05-04T00:37:06.800Z,930.84
2018-05-04T00:37:19.956Z,930.86
2018-05-04T00:37:32.136Z,930.83
2018-05-04T00:37:44.991Z,930.84
2018-05-04T00:37:58.330Z,930.86
2018-05-04T00:38:11.191Z,930.87
2018-05-04T00:38:24.549Z,930.86
2018-05-04T00:38:37.206Z,930.86
2018-05-04T00:38:49.878Z,930.83
2018-05-04T00:39:02.538Z,930.86
2018-05-04T00:39:15.681Z,930.86
2018-05-04T00:39:28.340Z,930.86
2018-05-04T00:39:40.527Z,930.85
2018-05-04T00:39:53.895Z,930.84
2018-05-04T00:40:06.096Z,930.88
2018-05-04T00:40:18.962Z,930.87
2018-05-04T00:40:32.092Z,930.85
2018-05-04T00:40:44.758Z,930.87
2018-05-04T00:40:57.886Z,930.89
2018-05-04T00:41:10.560Z,930.88
2018-05-04T00:41:22.750Z,930.84
2018-05-04T00:41:35.894Z,930.88
2018-05-04T00:41:49.232Z,930.89
2018-05-04T00:42:01.899Z,930.87
2018-05-04T00:42:14.791Z,930.84
2018-05-04T00:42:27.928Z,930.82
2018-05-04T00:42:40.314Z,930.82
2018-05-04T00:42:52.502Z,930.83
2018-05-04T00:43:05.172Z,930.81
2018-05-04T00:43:17.848Z,930.85
2018-05-04T00:43:30.997Z,930.86
2018-05-04T00:43:43.657Z,930.81
2018-05-04T00:43:56.314Z,930.82
2018-05-04T00:44:09.421Z,930.82
2018-05-04T00:44:22.757Z,930.8
2018-05-04T00:44:35.413Z,930.81
2018-05-04T00:44:48.072Z,930.8
2018-05-04T00:45:01.197Z,930.79
2018-05-04T00:45:12.428Z,930.8
2018-05-04T00:45:26.533Z,930.82
2018-05-04T00:45:39.653Z,930.82
2018-05-04T00:45:52.995Z,930.83
2018-05-04T00:46:05.587Z,930.8
2018-05-04T00:46:19.016Z,930.81
2018-05-04T00:46:31.692Z,930.78
2018-05-04T00:46:44.356Z,930.79
2018-05-04T00:46:57.493Z,930.81
2018-05-04T00:47:10.153Z,930.79
2018-05-04T00:47:22.329Z,930.8
2018-05-04T00:47:34.986Z,930.81
2018-05-04T00:47:47.178Z,930.79
2018-05-04T00:47:59.819Z,930.78
2018-05-04T00:48:12.003Z,930.83
2018-05-04T00:48:25.138Z,930.81
2018-05-04T00:48:38.519Z,930.81
2018-05-04T00:48:51.929Z,930.81
2018-05-04T00:49:04.599Z,930.81
2018-05-04T00:49:17.749Z,930.78
2018-05-04T00:49:32.339Z,930.8
2018-05-04T00:49:45.005Z,930.79
2018-05-04T00:49:57.197Z,930.8
2018-05-04T00:50:11.316Z,930.81
2018-05-04T00:50:23.504Z,930.84
2018-05-04T00:50:35.687Z,930.81
2018-05-04T00:50:49.316Z,930.84
2018-05-04T00:51:01.970Z,930.83
2018-05-04T00:51:14.636Z,930.85
2018-05-04T00:51:27.295Z,930.81
2018-05-04T00:51:40.017Z,930.85
2018-05-04T00:51:52.866Z,930.8
2018-05-04T00:52:07.464Z,930.8
2018-05-04T00:52:20.129Z,930.83
2018-05-04T00:52:32.796Z,930.82
2018-05-04T00:52:45.447Z,930.84
2018-05-04T00:52:58.101Z,930.86
2018-05-04T00:53:10.965Z,930.85
2018-05-04T00:53:24.112Z,930.85
2018-05-04T00:53:37.012Z,930.83
2018-05-04T00:53:49.667Z,930.82
2018-05-04T00:54:02.800Z,930.82
2018-05-04T00:54:16.167Z,930.84
2018-05-04T00:54:29.301Z,930.85
2018-05-04T00:54:41.951Z,930.86
2018-05-04T00:54:55.086Z,930.88
2018-05-04T00:55:08.319Z,930.89
2018-05-04T00:55:20.983Z,930.85
2018-05-04T00:55:33.634Z,930.87
2018-05-04T00:55:46.016Z,930.88
2018-05-04T00:55:58.677Z,930.85
2018-05-04T00:56:11.099Z,930.87
2018-05-04T00:56:23.863Z,930.87
2018-05-04T00:56:37.011Z,930.84
2018-05-04T00:56:49.661Z,930.85
2018-05-04T00:57:04.455Z,930.87
2018-05-04T00:57:17.129Z,930.88
2018-05-04T00:57:30.273Z,930.86
2018-05-04T00:57:42.941Z,930.85
2018-05-04T00:57:56.288Z,930.85
2018-05-04T00:58:08.954Z,930.84
2018-05-04T00:58:22.096Z,930.86
2018-05-04T00:58:34.753Z,930.84
2018-05-04T00:58:46.469Z,930.84
2018-05-04T00:58:59.121Z,930.89
2018-05-04T00:59:12.248Z,930.87
2018-05-04T00:59:24.922Z,930.9
2018-05-04T00:59:38.060Z,930.86
2018-05-04T00:59:50.934Z,930.83
2018-05-04T01:00:04.073Z,930.83
2018-05-04T01:00:16.741Z,930.83
2018-05-04T01:00:29.883Z,930.88
2018-05-04T01:00:43.210Z,930.86
2018-05-04T01:00:55.865Z,930.84
2018-05-04T01:01:08.519Z,930.84
2018-05-04T01:01:21.533Z,930.86
2018-05-04T01:01:34.167Z,930.86
2018-05-04T01:01:47.291Z,930.86
2018-05-04T01:02:00.430Z,930.88
2018-05-04T01:02:12.690Z,930.85
2018-05-04T01:02:25.338Z,930.88
2018-05-04T01:02:38.001Z,930.87
2018-05-04T01:02:51.112Z,930.86
2018-05-04T01:03:04.254Z,930.91
2018-05-04T01:03:16.891Z,930.85
2018-05-04T01:03:29.539Z,930.88
2018-05-04T01:03:42.185Z,930.85
2018-05-04T01:03:54.834Z,930.86
2018-05-04T01:04:06.978Z,930.88
2018-05-04T01:04:19.618Z,930.85
2018-05-04T01:04:32.290Z,930.85
2018-05-04T01:04:44.950Z,930.87
2018-05-04T01:04:58.123Z,930.87
2018-05-04T01:05:11.510Z,930.88
2018-05-04T01:05:24.168Z,930.91
2018-05-04T01:05:37.332Z,930.86
2018-05-04T01:05:50.465Z,930.9
2018-05-04T01:06:03.108Z,930.88
2018-05-04T01:06:15.301Z,930.86
2018-05-04T01:06:27.970Z,930.9
2018-05-04T01:06:40.131Z,930.87
2018-05-04T01:06:52.786Z,930.87
2018-05-04T01:07:05.442Z,930.88
2018-05-04T01:07:18.585Z,930.87
2018-05-04T01:07:31.697Z,930.87
2018-05-04T01:07:44.825Z,930.89
2018-05-04T01:07:57.946Z,930.86
2018-05-04T01:08:11.056Z,930.88
2018-05-04T01:08:23.722Z,930.85
2018-05-04T01:08:36.833Z,930.87
2018-05-04T01:08:49.958Z,930.88
2018-05-04T01:09:03.115Z,930.86
2018-05-04T01:09:15.780Z,930.89
2018-05-04T01:09:28.424Z,930.88
2018-05-04T01:09:41.533Z,930.88
2018-05-04T01:09:54.658Z,930.88
2018-05-04T01:10:06.835Z,930.88
2018-05-04T01:10:19.986Z,930.86
2018-05-04T01:10:33.106Z,930.85
2018-05-04T01:10:47.684Z,930.88
2018-05-04T01:10:59.927Z,930.89
2018-05-04T01:11:12.111Z,930.87
2018-05-04T01:11:24.767Z,930.89
2018-05-04T01:11:37.403Z,930.88
2018-05-04T01:11:50.072Z,930.91
2018-05-04T01:12:03.182Z,930.86
2018-05-04T01:12:16.302Z,930.86
2018-05-04T01:12:28.969Z,930.89
2018-05-04T01:12:41.625Z,930.87
2018-05-04T01:12:54.274Z,930.9
2018-05-04T01:13:06.427Z,930.88
2018-05-04T01:13:18.639Z,930.88
2018-05-04T01:13:31.774Z,930.89
2018-05-04T01:13:43.956Z,930.9
2018-05-04T01:13:57.071Z,930.88
2018-05-04T01:14:09.269Z,930.92
2018-05-04T01:14:21.911Z,930.91
2018-05-04T01:14:34.575Z,930.91
2018-05-04T01:14:47.245Z,930.91
2018-05-04T01:15:00.363Z,930.92
2018-05-04T01:15:13.027Z,930.9
2018-05-04T01:15:25.695Z,930.87
2018-05-04T01:15:38.363Z,930.88
2018-05-04T01:15:51.482Z,930.89
2018-05-04T01:16:03.180Z,930.91
2018-05-04T01:16:16.316Z,930.91
2018-05-04T01:16:30.186Z,930.88
2018-05-04T01:16:43.303Z,930.89
2018-05-04T01:16:56.448Z,930.9
2018-05-04T01:17:09.568Z,930.9
2018-05-04T01:17:22.200Z,930.86
2018-05-04T01:17:35.339Z,930.9
2018-05-04T01:17:47.977Z,930.87
2018-05-04T01:18:01.108Z,930.91
2018-05-04T01:18:13.284Z,930.92
2018-05-04T01:18:26.409Z,930.94
2018-05-04T01:18:39.063Z,930.91
2018-05-04T01:18:51.710Z,930.93
2018-05-04T01:19:05.056Z,930.9
2018-05-04T01:19:17.238Z,930.92
2018-05-04T01:19:30.351Z,930.89
2018-05-04T01:19:42.982Z,930.93
2018-05-04T01:19:56.117Z,930.91
2018-05-04T01:20:08.798Z,930.9
2018-05-04T01:20:20.991Z,930.9
2018-05-04T01:20:34.110Z,930.93
2018-05-04T01:20:47.233Z,930.96
2018-05-04T01:21:00.343Z,930.93
2018-05-04T01:21:13.005Z,930.93
2018-05-04T01:21:25.643Z,930.92
2018-05-04T01:21:38.760Z,930.93
2018-05-04T01:21:51.901Z,930.93
2018-05-04T01:22:04.549Z,930.9
2018-05-04T01:22:17.675Z,930.88
2018-05-04T01:22:30.312Z,930.9
2018-05-04T01:22:42.504Z,930.89
2018-05-04T01:22:55.347Z,930.93
2018-05-04T01:23:07.535Z,930.9
2018-05-04T01:23:20.199Z,930.89
2018-05-04T01:23:32.389Z,930.89
2018-05-04T01:23:45.508Z,930.88
2018-05-04T01:23:58.631Z,930.91
2018-05-04T01:24:11.305Z,930.93
2018-05-04T01:24:25.597Z,930.92
2018-05-04T01:24:37.770Z,930.91
2018-05-04T01:24:49.950Z,930.88
2018-05-04T01:25:02.606Z,930.89
2018-05-04T01:25:15.237Z,930.89
2018-05-04T01:25:28.564Z,930.87
2018-05-04T01:25:41.211Z,930.88
2018-05-04T01:25:53.870Z,930.87
2018-05-04T01:26:06.477Z,930.88
2018-05-04T01:26:19.134Z,930.88
2018-05-04T01:26:32.368Z,930.83
2018-05-04T01:26:45.488Z,930.87
2018-05-04T01:26:58.615Z,930.85
2018-05-04T01:27:11.249Z,930.87
2018-05-04T01:27:24.561Z,930.81
2018-05-04T01:27:37.682Z,930.85
2018-05-04T01:27:50.820Z,930.83
2018-05-04T01:28:03.956Z,930.83
2018-05-04T01:28:17.091Z,930.83
2018-05-04T01:28:30.213Z,930.81
2018-05-04T01:28:43.339Z,930.86
2018-05-04T01:28:56.004Z,930.8
2018-05-04T01:29:08.653Z,930.8
2018-05-04T01:29:21.400Z,930.81
2018-05-04T01:29:33.574Z,930.82
2018-05-04T01:29:46.460Z,930.88
2018-05-04T01:29:59.102Z,930.84
2018-05-04T01:30:11.771Z,930.83
2018-05-04T01:30:23.947Z,930.82
2018-05-04T01:30:36.119Z,930.81
2018-05-04T01:30:48.783Z,930.82
2018-05-04T01:31:01.432Z,930.78
2018-05-04T01:31:14.559Z,930.81
2018-05-04T01:31:27.221Z,930.84
2018-05-04T01:31:40.242Z,930.83
2018-05-04T01:31:53.380Z,930.83
2018-05-04T01:32:06.501Z,930.85
2018-05-04T01:32:19.168Z,930.84
2018-05-04T01:32:33.731Z,930.81
2018-05-04T01:32:46.368Z,930.83
2018-05-04T01:32:59.005Z,930.81
2018-05-04T01:33:11.179Z,930.81
2018-05-04T01:33:24.314Z,930.82
2018-05-04T01:33:37.437Z,930.81
2018-05-04T01:33:49.613Z,930.79
2018-05-04T01:34:02.822Z,930.82
2018-05-04T01:34:15.954Z,930.85
2018-05-04T01:34:28.616Z,930.83
2018-05-04T01:34:41.277Z,930.79
2018-05-04T01:34:54.410Z,930.83
2018-05-04T01:35:06.607Z,930.79
2018-05-04T01:35:18.784Z,930.81
2018-05-04T01:35:30.935Z,930.81
2018-05-04T01:35:44.079Z,930.8
2018-05-04T01:35:57.227Z,930.81
2018-05-04T01:36:09.884Z,930.81
2018-05-04T01:36:22.531Z,930.81
2018-05-04T01:36:35.444Z,930.81
2018-05-04T01:36:48.099Z,930.83
2018-05-04T01:37:00.775Z,930.83
2018-05-04T01:37:13.429Z,930.78
2018-05-04T01:37:26.097Z,930.81
2018-05-04T01:37:39.210Z,930.83
2018-05-04T01:37:52.560Z,930.79
2018-05-04T01:38:05.680Z,930.8
2018-05-04T01:38:18.811Z,930.8
2018-05-04T01:38:31.459Z,930.8
2018-05-04T01:38:44.587Z,930.83
2018-05-04T01:38:56.795Z,930.78
2018-05-04T01:39:09.914Z,930.79
2018-05-04T01:39:22.087Z,930.77
2018-05-04T01:39:35.217Z,930.77
2018-05-04T01:39:48.355Z,930.8
2018-05-04T01:40:01.002Z,930.8
2018-05-04T01:40:14.333Z,930.79
2018-05-04T01:40:26.490Z,930.82
2018-05-04T01:40:39.602Z,930.8
2018-05-04T01:40:52.735Z,930.81
2018-05-04T01:41:05.389Z,930.8
2018-05-04T01:41:18.057Z,930.82
2018-05-04T01:41:30.710Z,930.8
2018-05-04T01:41:43.852Z,930.79
2018-05-04T01:41:56.034Z,930.82
2018-05-04T01:42:08.683Z,930.83
2018-05-04T01:42:20.864Z,930.79
2018-05-04T01:42:33.528Z,930.79
2018-05-04T01:42:46.651Z,930.82
2018-05-04T01:42:59.288Z,930.82
2018-05-04T01:43:11.965Z,930.81
2018-05-04T01:43:25.076Z,930.79
2018-05-04T01:43:38.213Z,930.75
2018-05-04T01:43:51.336Z,930.77
2018-05-04T01:44:04.532Z,930.79
2018-05-04T01:44:16.241Z,930.78
2018-05-04T01:44:28.895Z,930.8
2018-05-04T01:44:42.046Z,930.77
2018-05-04T01:44:55.165Z,930.8
2018-05-04T01:45:08.516Z,930.78
2018-05-04T01:45:20.294Z,930.81
2018-05-04T01:45:33.414Z,930.75
2018-05-04T01:45:46.529Z,930.79
2018-05-04T01:45:58.724Z,930.82
2018-05-04T01:46:12.091Z,930.8
2018-05-04T01:46:24.249Z,930.82
2018-05-04T01:46:38.188Z,930.81
2018-05-04T01:46:51.396Z,930.83
2018-05-04T01:47:04.520Z,930.79
2018-05-04T01:47:17.633Z,930.81
2018-05-04T01:47:30.768Z,930.82
2018-05-04T01:47:42.934Z,930.81
2018-05-04T01:47:56.059Z,930.82
2018-05-04T01:48:10.636Z,930.82
2018-05-04T01:48:23.510Z,930.84
2018-05-04T01:48:36.638Z,930.83
2018-05-04T01:48:49.285Z,930.83
2018-05-04T01:49:01.939Z,930.83
2018-05-04T01:49:14.592Z,930.85
2018-05-04T01:49:27.244Z,930.86
2018-05-04T01:49:39.912Z,930.83
2018-05-04T01:49:52.099Z,930.85
2018-05-04T01:50:04.273Z,930.83
2018-05-04T01:50:17.451Z,930.89
2018-05-04T01:50:30.580Z,930.84
2018-05-04T01:50:43.238Z,930.86
2018-05-04T01:50:55.891Z,930.87
2018-05-04T01:51:08.539Z,930.86
2018-05-04T01:51:21.183Z,930.81
2018-05-04T01:51:34.540Z,930.82
2018-05-04T01:51:47.771Z,930.89
2018-05-04T01:52:00.423Z,930.86
2018-05-04T01:52:12.628Z,930.83
2018-05-04T01:52:25.281Z,930.84
2018-05-04T01:52:38.625Z,930.87
2018-05-04T01:52:51.749Z,930.89
2018-05-04T01:53:04.891Z,930.86
2018-05-04T01:53:18.028Z,930.85
2018-05-04T01:53:30.675Z,930.85
2018-05-04T01:53:43.794Z,930.86
2018-05-04T01:53:56.464Z,930.83
2018-05-04T01:54:09.805Z,930.88
2018-05-04T01:54:22.940Z,930.81
2018-05-04T01:54:35.623Z,930.89
2018-05-04T01:54:48.477Z,930.86
2018-05-04T01:55:01.156Z,930.86
2018-05-04T01:55:13.322Z,930.84
2018-05-04T01:55:26.461Z,930.86
2018-05-04T01:55:39.117Z,930.86
2018-05-04T01:55:52.235Z,930.86
2018-05-04T01:56:05.099Z,930.85
2018-05-04T01:56:17.739Z,930.86
2018-05-04T01:56:29.916Z,930.83
2018-05-04T01:56:42.090Z,930.85
2018-05-04T01:56:54.740Z,930.86
2018-05-04T01:57:07.869Z,930.87
2018-05-04T01:57:20.722Z,930.88
2018-05-04T01:57:33.858Z,930.89
2018-05-04T01:57:46.998Z,930.83
2018-05-04T01:58:00.867Z,930.86
2018-05-04T01:58:13.985Z,930.86
2018-05-04T01:58:26.657Z,930.86
2018-05-04T01:58:39.768Z,930.85
2018-05-04T01:58:52.443Z,930.85
2018-05-04T01:59:05.631Z,930.84
2018-05-04T01:59:17.798Z,930.84
2018-05-04T01:59:30.640Z,930.84
2018-05-04T01:59:43.777Z,930.83
2018-05-04T01:59:56.911Z,930.85
2018-05-04T02:00:09.087Z,930.84
2018-05-04T02:00:21.749Z,930.88
2018-05-04T02:00:34.898Z,930.87
2018-05-04T02:00:47.073Z,930.88
2018-05-04T02:01:00.187Z,930.87
2018-05-04T02:01:13.337Z,930.86
2018-05-04T02:01:26.650Z,930.84
2018-05-04T02:01:40.143Z,930.85
2018-05-04T02:01:52.782Z,930.89
2018-05-04T02:02:05.439Z,930.85
2018-05-04T02:02:18.082Z,930.87
2018-05-04T02:02:30.746Z,930.85
2018-05-04T02:02:43.898Z,930.84
2018-05-04T02:02:57.015Z,930.84
2018-05-04T02:03:09.194Z,930.86
2018-05-04T02:03:22.329Z,930.82
2018-05-04T02:03:35.469Z,930.84
2018-05-04T02:03:47.647Z,930.82
2018-05-04T02:04:00.311Z,930.82
2018-05-04T02:04:13.448Z,930.84
2018-05-04T02:04:25.615Z,930.84
2018-05-04T02:04:37.742Z,930.83
2018-05-04T02:04:50.866Z,930.85
2018-05-04T02:05:04.023Z,930.85
2018-05-04T02:05:17.157Z,930.85
2018-05-04T02:05:30.286Z,930.82
2018-05-04T02:05:42.939Z,930.85
2018-05-04T02:05:56.071Z,930.84
2018-05-04T02:06:08.244Z,930.82
2018-05-04T02:06:21.474Z,930.83
2018-05-04T02:06:34.133Z,930.81
2018-05-04T02:06:46.777Z,930.84
2018-05-04T02:06:59.435Z,930.81
2018-05-04T02:07:12.100Z,930.81
2018-05-04T02:07:24.787Z,930.82
2018-05-04T02:07:37.929Z,930.84
2018-05-04T02:07:50.701Z,930.8
2018-05-04T02:08:03.909Z,930.81
2018-05-04T02:08:16.093Z,930.84
2018-05-04T02:08:29.210Z,930.83
2018-05-04T02:08:41.405Z,930.8
2018-05-04T02:08:54.517Z,930.82
2018-05-04T02:09:07.664Z,930.82
2018-05-04T02:09:20.810Z,930.83
2018-05-04T02:09:33.451Z,930.8
2018-05-04T02:09:46.115Z,930.82
2018-05-04T02:09:59.249Z,930.82
2018-05-04T02:10:11.898Z,930.8
2018-05-04T02:10:24.537Z,930.85
2018-05-04T02:10:37.654Z,930.81
2018-05-04T02:10:50.296Z,930.82
2018-05-04T02:11:02.965Z,930.82
2018-05-04T02:11:15.637Z,930.79
2018-05-04T02:11:27.819Z,930.81
2018-05-04T02:11:40.945Z,930.79
2018-05-04T02:11:53.138Z,930.77
2018-05-04T02:12:05.987Z,930.79
2018-05-04T02:12:19.114Z,930.81
2018-05-04T02:12:31.303Z,930.8
2018-05-04T02:12:44.435Z,930.81
2018-05-04T02:12:57.117Z,930.85
2018-05-04T02:13:09.289Z,930.82
2018-05-04T02:13:22.423Z,930.76
2018-05-04T02:13:34.586Z,930.79
2018-05-04T02:13:47.706Z,930.79
2018-05-04T02:14:00.361Z,930.78
2018-05-04T02:14:12.539Z,930.83
2018-05-04T02:14:25.663Z,930.76
2018-05-04T02:14:39.787Z,930.79
2018-05-04T02:14:52.920Z,930.77
2018-05-04T02:15:05.582Z,930.8
2018-05-04T02:15:18.727Z,930.8
2018-05-04T02:15:31.889Z,930.79
2018-05-04T02:15:44.520Z,930.78
2018-05-04T02:15:57.164Z,930.79
2018-05-04T02:16:09.830Z,930.78
2018-05-04T02:16:22.495Z,930.78
2018-05-04T02:16:35.618Z,930.76
2018-05-04T02:16:48.975Z,930.76
2018-05-04T02:17:01.835Z,930.8
2018-05-04T02:17:14.469Z,930.77
2018-05-04T02:17:27.807Z,930.77
2018-05-04T02:17:40.929Z,930.79
2018-05-04T02:17:53.575Z,930.78
2018-05-04T02:18:06.243Z,930.76
2018-05-04T02:18:19.402Z,930.77
2018-05-04T02:18:32.517Z,930.78
2018-05-04T02:18:45.118Z,930.75
2018-05-04T02:18:58.242Z,930.75
2018-05-04T02:19:11.362Z,930.78
2018-05-04T02:19:24.587Z,930.78
2018-05-04T02:19:37.739Z,930.77
2018-05-04T02:19:50.404Z,930.76
2018-05-04T02:20:04.053Z,930.77
2018-05-04T02:20:16.728Z,930.75
2018-05-04T02:20:29.840Z,930.75
2018-05-04T02:20:42.483Z,930.77
2018-05-04T02:20:55.612Z,930.77
2018-05-04T02:21:08.284Z,930.75
2018-05-04T02:21:19.984Z,930.74
2018-05-04T02:21:32.637Z,930.76
2018-05-04T02:21:45.798Z,930.75
2018-05-04T02:21:58.912Z,930.74
2018-05-04T02:22:12.055Z,930.76
2018-05-04T02:22:24.784Z,930.76
2018-05-04T02:22:37.912Z,930.75
2018-05-04T02:22:51.098Z,930.77
2018-05-04T02:23:04.236Z,930.8
2018-05-04T02:23:16.947Z,930.75
2018-05-04T02:23:30.067Z,930.79
2018-05-04T02:23:43.405Z,930.75
2018-05-04T02:23:56.075Z,930.77
2018-05-04T02:24:08.253Z,930.79
2018-05-04T02:24:21.378Z,930.76
2018-05-04T02:24:34.486Z,930.75
2018-05-04T02:24:47.143Z,930.76
2018-05-04T02:24:59.815Z,930.75
2018-05-04T02:25:11.987Z,930.78
2018-05-04T02:25:25.122Z,930.74
2018-05-04T02:25:39.256Z,930.75
2018-05-04T02:25:52.388Z,930.75
2018-05-04T02:26:05.049Z,930.77
2018-05-04T02:26:17.246Z,930.75
2018-05-04T02:26:29.894Z,930.73
2018-05-04T02:26:42.559Z,930.75
2018-05-04T02:26:55.320Z,930.73
2018-05-04T02:27:08.375Z,930.72
2018-05-04T02:27:20.561Z,930.74
2018-05-04T02:27:33.205Z,930.73
2018-05-04T02:27:46.340Z,930.75
2018-05-04T02:27:59.008Z,930.71
2018-05-04T02:28:11.679Z,930.73
2018-05-04T02:28:24.806Z,930.7
2018-05-04T02:28:37.459Z,930.75
2018-05-04T02:28:50.600Z,930.77
2018-05-04T02:29:03.721Z,930.76
2018-05-04T02:29:16.361Z,930.71
2018-05-04T02:29:29.091Z,930.71
2018-05-04T02:29:41.288Z,930.72
2018-05-04T02:29:53.477Z,930.74
2018-05-04T02:30:05.659Z,930.72
2018-05-04T02:30:18.332Z,930.73
2018-05-04T02:30:30.974Z,930.73
2018-05-04T02:30:45.569Z,930.7
2018-05-04T02:30:58.824Z,930.74
2018-05-04T02:31:11.490Z,930.73
2018-05-04T02:31:23.655Z,930.74
2018-05-04T02:31:36.768Z,930.73
2018-05-04T02:31:50.216Z,930.71
2018-05-04T02:32:02.911Z,930.72
2018-05-04T02:32:16.994Z,930.73
2018-05-04T02:32:29.659Z,930.75
2018-05-04T02:32:42.813Z,930.75
2018-05-04T02:32:55.971Z,930.75
2018-05-04T02:33:08.626Z,930.74
2018-05-04T02:33:21.280Z,930.75
2018-05-04T02:33:33.955Z,930.75
2018-05-04T02:33:46.609Z,930.73
2018-05-04T02:33:59.276Z,930.75
2018-05-04T02:34:11.941Z,930.74
2018-05-04T02:34:25.086Z,930.76
2018-05-04T02:34:38.280Z,930.73
2018-05-04T02:34:51.434Z,930.76
2018-05-04T02:35:04.092Z,930.77
2018-05-04T02:35:17.238Z,930.76
2018-05-04T02:35:29.940Z,930.72
2018-05-04T02:35:43.068Z,930.74
2018-05-04T02:35:55.721Z,930.73
2018-05-04T02:36:08.393Z,930.76
2018-05-04T02:36:21.285Z,930.75
2018-05-04T02:36:34.450Z,930.75
2018-05-04T02:36:47.104Z,930.73
2018-05-04T02:37:00.230Z,930.76
2018-05-04T02:37:12.417Z,930.75
2018-05-04T02:37:25.079Z,930.74
2018-05-04T02:37:37.730Z,930.73
2018-05-04T02:37:50.875Z,930.75
2018-05-04T02:38:03.532Z,930.74
2018-05-04T02:38:16.196Z,930.76
2018-05-04T02:38:28.376Z,930.77
2018-05-04T02:38:41.726Z,930.77
2018-05-04T02:38:54.394Z,930.75
2018-05-04T02:39:07.034Z,930.77
2018-05-04T02:39:19.718Z,930.76
2018-05-04T02:39:32.396Z,930.78
2018-05-04T02:39:45.538Z,930.79
2018-05-04T02:39:58.198Z,930.76
2018-05-04T02:40:11.323Z,930.78
2018-05-04T02:40:24.496Z,930.79
2018-05-04T02:40:37.619Z,930.79
2018-05-04T02:40:50.765Z,930.79
2018-05-04T02:41:03.433Z,930.78